Terminal Aerodrome Forecast
Issued by NWS Sioux Falls, SD

Home | Current Version | Previous Version | Graphics & Text | Print | Product List | Glossary Off
Versions: 1 2 3 4 5 6 7 8 9 10 11 12 13 14 15 16 17 18 19

000
FTUS43 KFSD 021954 AAB
TAFFSD
TAF AMD
KFSD 021954Z 0220/0318 12008KT P6SM SCT035 BKN100
      TEMPO 0220/0221 -SHRA
     FM030100 15006KT P6SM BKN040
     FM030900 14004KT P6SM SCT060=

USA.gov is the U.S. government's official web portal to all federal, state and local government web resources and services.